createdAt,value
2023-01-28T00:00:49.155Z,7.22
2023-01-28T00:03:15.614Z,8.65
2023-01-28T00:05:42.706Z,7.70
2023-01-28T00:08:09.209Z,6.57
2023-01-28T00:10:37.317Z,7.53
2023-01-28T00:13:03.784Z,6.50
2023-01-28T00:15:30.207Z,10.65
2023-01-28T00:17:56.586Z,8.03
2023-01-28T00:20:22.969Z,7.63
2023-01-28T00:22:52.006Z,7.35
2023-01-28T00:25:18.614Z,7.05
2023-01-28T00:27:45.042Z,6.95
2023-01-28T00:30:12.009Z,9.90
2023-01-28T00:32:38.409Z,9.60
2023-01-28T00:35:05.143Z,7.97
2023-01-28T00:37:31.600Z,9.20
2023-01-28T00:39:58.060Z,9.88
2023-01-28T00:42:24.459Z,7.57
2023-01-28T00:44:50.853Z,7.75
2023-01-28T00:47:17.243Z,7.25
2023-01-28T00:49:43.671Z,7.38
2023-01-28T00:52:10.053Z,8.98
2023-01-28T00:54:36.444Z,10.70
2023-01-28T00:57:02.846Z,7.35
2023-01-28T00:59:29.281Z,8.23
2023-01-28T01:01:55.664Z,7.43
2023-01-28T01:04:22.078Z,7.75
2023-01-28T01:06:48.518Z,6.67
2023-01-28T01:09:14.958Z,7.68
2023-01-28T01:11:41.376Z,9.60
2023-01-28T01:14:09.774Z,8.57
2023-01-28T01:16:36.259Z,8.15
2023-01-28T01:19:03.087Z,10.00
2023-01-28T01:21:30.421Z,7.72
2023-01-28T01:23:57.143Z,7.40
2023-01-28T01:26:24.508Z,8.02
2023-01-28T01:28:51.690Z,7.68
2023-01-28T01:31:20.098Z,7.70
2023-01-28T01:33:48.979Z,7.40
2023-01-28T01:36:17.627Z,7.45
2023-01-28T01:38:44.409Z,8.40
2023-01-28T01:41:23.225Z,8.02
2023-01-28T01:43:56.377Z,9.13
2023-01-28T01:46:31.958Z,9.20
2023-01-28T01:49:07.947Z,8.02
2023-01-28T01:51:35.914Z,7.95
2023-01-28T01:54:04.111Z,8.80
2023-01-28T01:56:35.692Z,7.40
2023-01-28T01:59:03.632Z,8.88
2023-01-28T02:01:31.734Z,9.40
2023-01-28T02:04:08.688Z,7.68
2023-01-28T02:06:36.486Z,7.13
2023-01-28T02:09:03.398Z,9.07
2023-01-28T02:11:33.298Z,8.32
2023-01-28T02:14:03.257Z,8.98
2023-01-28T02:16:31.858Z,9.18
2023-01-28T02:18:58.326Z,6.97
2023-01-28T02:21:40.251Z,7.67
2023-01-28T02:24:28.072Z,9.70
2023-01-28T02:27:13.960Z,6.45
2023-01-28T02:29:49.388Z,7.20
2023-01-28T02:32:36.463Z,7.95
2023-01-28T02:35:08.186Z,8.87
2023-01-28T02:37:47.691Z,7.18
2023-01-28T02:40:27.579Z,8.95
2023-01-28T02:42:53.913Z,7.50
2023-01-28T02:45:25.667Z,8.57
2023-01-28T02:47:53.102Z,7.97
2023-01-28T02:50:20.472Z,7.72
2023-01-28T02:53:13.457Z,7.65
2023-01-28T02:55:42.741Z,7.22
2023-01-28T02:58:27.699Z,7.25
2023-01-28T03:01:02.875Z,7.80
2023-01-28T03:03:59.353Z,8.00
2023-01-28T03:06:37.315Z,7.82
2023-01-28T03:09:07.410Z,8.00
2023-01-28T03:11:39.849Z,8.57
2023-01-28T03:14:08.390Z,8.83
2023-01-28T03:16:35.178Z,8.50
2023-01-28T03:19:02.693Z,8.23
2023-01-28T03:21:34.580Z,9.10
2023-01-28T03:24:13.097Z,9.80
2023-01-28T03:26:55.717Z,10.10
2023-01-28T03:29:24.105Z,9.90
2023-01-28T03:31:51.557Z,8.05
2023-01-28T03:34:20.967Z,10.00
2023-01-28T03:36:47.845Z,9.88
2023-01-28T03:39:14.383Z,7.57
2023-01-28T03:41:41.073Z,8.48
2023-01-28T03:44:07.493Z,7.80
2023-01-28T03:46:33.794Z,8.27
2023-01-28T03:49:00.104Z,10.02
2023-01-28T03:51:26.411Z,7.23
2023-01-28T03:53:52.744Z,7.85
2023-01-28T03:56:19.023Z,9.40
2023-01-28T03:58:45.553Z,7.50
2023-01-28T04:01:12.825Z,8.75
2023-01-28T04:03:39.174Z,10.33
2023-01-28T04:06:07.620Z,7.70
2023-01-28T04:08:34.079Z,8.68
2023-01-28T04:11:00.447Z,9.52
2023-01-28T04:13:26.741Z,7.90
2023-01-28T04:15:53.081Z,8.10
2023-01-28T04:18:19.703Z,8.23
2023-01-28T04:20:48.688Z,8.48
2023-01-28T04:23:14.969Z,8.00
2023-01-28T04:25:41.248Z,9.80
2023-01-28T04:28:07.517Z,8.40
2023-01-28T04:30:33.876Z,8.00
2023-01-28T04:33:00.227Z,7.97
2023-01-28T04:35:26.569Z,8.80
2023-01-28T04:37:52.848Z,8.98
2023-01-28T04:40:19.225Z,9.10
2023-01-28T04:42:53.946Z,10.20
2023-01-28T04:45:20.458Z,9.35
2023-01-28T04:47:46.969Z,8.25
2023-01-28T04:50:13.401Z,8.27
2023-01-28T04:52:39.955Z,8.77
2023-01-28T04:55:06.992Z,9.13
2023-01-28T04:57:33.326Z,9.10
2023-01-28T04:59:59.693Z,7.93
2023-01-28T05:02:27.151Z,8.98
2023-01-28T05:04:53.563Z,8.70
2023-01-28T05:07:20.022Z,7.30
2023-01-28T05:09:46.391Z,8.60
2023-01-28T05:12:12.741Z,9.07
2023-01-28T05:14:39.051Z,7.78
2023-01-28T05:17:05.671Z,7.80
2023-01-28T05:19:32.061Z,8.27
2023-01-28T05:21:58.435Z,9.45
2023-01-28T05:24:24.948Z,8.40
2023-01-28T05:26:51.383Z,9.57
2023-01-28T05:29:17.778Z,9.23
2023-01-28T05:31:44.229Z,8.10
2023-01-28T05:34:10.649Z,9.40
2023-01-28T05:36:37.103Z,7.50
2023-01-28T05:39:03.553Z,8.45
2023-01-28T05:41:29.942Z,10.90
2023-01-28T05:43:56.420Z,7.43
2023-01-28T05:46:22.814Z,9.32
2023-01-28T05:48:49.210Z,9.30
2023-01-28T05:51:15.606Z,8.70
2023-01-28T05:53:41.999Z,8.30
2023-01-28T05:56:08.900Z,8.70
2023-01-28T05:58:35.270Z,10.13
2023-01-28T06:01:02.215Z,9.15
2023-01-28T06:03:28.614Z,9.45
2023-01-28T06:05:55.018Z,10.20
2023-01-28T06:08:21.554Z,9.05
2023-01-28T06:10:47.924Z,9.00
2023-01-28T06:13:14.232Z,9.50
2023-01-28T06:15:40.594Z,10.52
2023-01-28T06:18:07.031Z,12.17
2023-01-28T06:20:33.802Z,9.07
2023-01-28T06:23:00.192Z,10.45
2023-01-28T06:25:26.563Z,10.13
2023-01-28T06:27:52.986Z,9.70
2023-01-28T06:30:19.467Z,10.17
2023-01-28T06:32:45.803Z,9.45
2023-01-28T06:35:12.125Z,8.88
2023-01-28T06:37:38.454Z,10.75
2023-01-28T06:40:05.300Z,10.50
2023-01-28T06:42:31.703Z,10.57
2023-01-28T06:44:58.122Z,10.40
2023-01-28T06:47:24.525Z,9.50
2023-01-28T06:49:51.173Z,9.52
2023-01-28T06:52:17.570Z,8.85
2023-01-28T06:54:44.358Z,9.60
2023-01-28T06:57:10.751Z,10.32
2023-01-28T06:59:37.109Z,10.70
2023-01-28T07:02:03.524Z,10.82
2023-01-28T07:04:30.451Z,8.88
2023-01-28T07:06:56.795Z,8.77
2023-01-28T07:09:23.088Z,9.82
2023-01-28T07:11:49.459Z,10.27
2023-01-28T07:14:15.789Z,10.85
2023-01-28T07:16:42.161Z,9.98
2023-01-28T07:19:08.586Z,12.00
2023-01-28T07:21:35.017Z,10.45
2023-01-28T07:24:01.429Z,8.90
2023-01-28T07:26:27.731Z,9.02
2023-01-28T07:28:54.760Z,10.23
2023-01-28T07:31:21.131Z,8.30
2023-01-28T07:33:47.798Z,8.48
2023-01-28T07:36:14.284Z,9.10
2023-01-28T07:38:40.621Z,8.82
2023-01-28T07:41:06.953Z,8.05
2023-01-28T07:43:33.269Z,9.27
2023-01-28T07:46:02.787Z,7.97
2023-01-28T07:48:29.191Z,8.75
2023-01-28T07:50:59.013Z,7.32
2023-01-28T07:53:25.932Z,9.02
2023-01-28T07:55:52.287Z,7.57
2023-01-28T07:58:18.772Z,7.15
2023-01-28T08:00:45.128Z,7.15
2023-01-28T08:03:13.763Z,7.10
2023-01-28T08:05:44.714Z,8.88
2023-01-28T08:08:11.914Z,6.97
2023-01-28T08:10:38.844Z,8.18
2023-01-28T08:13:06.135Z,6.75
2023-01-28T08:15:34.830Z,7.07
2023-01-28T08:18:01.642Z,7.82
2023-01-28T08:20:29.285Z,7.20
2023-01-28T08:23:18.207Z,8.05
2023-01-28T08:25:45.227Z,6.82
2023-01-28T08:28:12.661Z,9.18
2023-01-28T08:30:39.452Z,8.23
2023-01-28T08:33:07.644Z,6.80
2023-01-28T08:35:34.593Z,7.45
2023-01-28T08:38:02.455Z,8.13
2023-01-28T08:40:29.479Z,7.03
2023-01-28T08:42:56.561Z,12.48
2023-01-28T08:45:26.687Z,6.67
2023-01-28T08:47:59.931Z,6.63
2023-01-28T08:50:28.491Z,6.88
2023-01-28T08:52:56.806Z,6.03
2023-01-28T08:55:24.088Z,7.22
2023-01-28T08:57:50.554Z,6.87
2023-01-28T09:00:17.520Z,7.63
2023-01-28T09:02:44.088Z,6.55
2023-01-28T09:05:10.492Z,6.43
2023-01-28T09:07:38.223Z,7.63
2023-01-28T09:10:06.129Z,6.93
2023-01-28T09:12:32.624Z,6.38
2023-01-28T09:14:59.218Z,7.75
2023-01-28T09:17:25.750Z,8.57
2023-01-28T09:19:52.107Z,7.38
2023-01-28T09:22:18.517Z,7.00
2023-01-28T09:24:45.094Z,8.15
2023-01-28T09:27:11.468Z,6.25
2023-01-28T09:29:37.855Z,8.23
2023-01-28T09:32:05.374Z,9.75
2023-01-28T09:34:31.803Z,7.43
2023-01-28T09:36:58.182Z,6.13
2023-01-28T09:39:24.556Z,7.15
2023-01-28T09:41:57.115Z,7.40
2023-01-28T09:44:51.308Z,7.82
2023-01-28T09:47:30.975Z,8.23
2023-01-28T09:50:01.121Z,8.60
2023-01-28T09:52:33.940Z,7.78
2023-01-28T09:55:24.738Z,7.43
2023-01-28T09:57:53.484Z,6.32
2023-01-28T10:00:45.200Z,6.37
2023-01-28T10:03:36.830Z,6.40
2023-01-28T10:06:26.141Z,6.55
2023-01-28T10:09:07.538Z,8.13
2023-01-28T10:12:01.326Z,6.05
2023-01-28T10:14:46.370Z,6.03
2023-01-28T10:17:41.932Z,6.78
2023-01-28T10:20:22.028Z,6.18
2023-01-28T10:23:08.268Z,6.25
2023-01-28T10:25:34.804Z,7.43
2023-01-28T10:28:02.267Z,6.80
2023-01-28T10:30:32.348Z,6.35
2023-01-28T10:33:17.647Z,8.10
2023-01-28T10:35:44.100Z,6.45
2023-01-28T10:38:15.616Z,7.75
2023-01-28T10:40:42.864Z,6.03
2023-01-28T10:43:09.497Z,4.88
2023-01-28T10:45:48.581Z,5.18
2023-01-28T10:48:23.411Z,4.57
2023-01-28T10:50:53.967Z,3.70
2023-01-28T10:53:20.376Z,2.77
2023-01-28T10:55:55.846Z,2.58
2023-01-28T10:58:29.087Z,2.95
2023-01-28T11:00:59.730Z,2.55
2023-01-28T11:03:26.831Z,3.85
2023-01-28T11:05:55.152Z,2.80
2023-01-28T11:08:24.361Z,4.30
2023-01-28T11:10:51.868Z,3.05
2023-01-28T11:13:20.948Z,2.35
2023-01-28T11:15:52.798Z,3.75
2023-01-28T11:18:24.556Z,3.37
2023-01-28T11:21:04.404Z,4.07
2023-01-28T11:23:50.614Z,4.63
2023-01-28T11:26:26.157Z,4.20
2023-01-28T11:28:53.251Z,5.38
2023-01-28T11:31:22.588Z,6.27
2023-01-28T11:33:54.183Z,3.78
2023-01-28T11:36:23.114Z,4.10
2023-01-28T11:39:13.846Z,4.05
2023-01-28T11:41:40.250Z,2.60
2023-01-28T11:44:24.891Z,1.97
2023-01-28T11:46:58.200Z,2.53
2023-01-28T11:49:40.383Z,3.78
2023-01-28T11:53:04.952Z,5.35
2023-01-28T11:56:03.900Z,2.85
2023-01-28T11:59:09.790Z,2.57
2023-01-28T12:01:57.705Z,2.83
2023-01-28T12:04:34.786Z,3.20
2023-01-28T12:07:13.277Z,5.28
2023-01-28T12:09:51.845Z,12.75
2023-01-28T12:12:43.705Z,5.47
2023-01-28T12:15:34.696Z,3.13
2023-01-28T12:18:36.534Z,4.45
2023-01-28T12:21:06.436Z,4.43
2023-01-28T12:23:47.734Z,5.72
2023-01-28T12:26:52.929Z,3.17
2023-01-28T12:29:37.344Z,4.80
2023-01-28T12:32:36.532Z,2.17
2023-01-28T12:35:05.780Z,4.70
2023-01-28T12:37:52.877Z,2.50
2023-01-28T12:40:43.879Z,4.13
2023-01-28T12:43:41.463Z,3.00
2023-01-28T12:46:35.471Z,3.60
2023-01-28T12:49:08.995Z,3.42
2023-01-28T12:51:56.787Z,2.67
2023-01-28T12:54:38.160Z,3.07
2023-01-28T12:57:08.942Z,1.85
2023-01-28T12:59:51.669Z,3.22
2023-01-28T13:02:27.063Z,4.03
2023-01-28T13:04:59.416Z,5.50
2023-01-28T13:07:39.615Z,1.97
2023-01-28T13:10:32.534Z,3.45
2023-01-28T13:12:59.402Z,3.33
2023-01-28T13:15:25.992Z,5.78
2023-01-28T13:18:03.655Z,4.57
2023-01-28T13:20:31.453Z,2.87
2023-01-28T13:23:03.024Z,4.13
2023-01-28T13:25:32.505Z,3.45
2023-01-28T13:28:02.211Z,3.80
2023-01-28T13:30:31.528Z,3.15
2023-01-28T13:33:06.914Z,4.70
2023-01-28T13:35:36.859Z,1.83
2023-01-28T13:38:21.113Z,3.35
2023-01-28T13:40:59.204Z,2.85
2023-01-28T13:43:35.396Z,2.25
2023-01-28T13:46:05.425Z,11.53
2023-01-28T13:48:46.716Z,2.50
2023-01-28T13:51:19.553Z,2.40
2023-01-28T13:53:53.338Z,2.20
2023-01-28T13:56:27.842Z,3.88
2023-01-28T13:59:24.054Z,4.33
2023-01-28T14:02:13.806Z,3.95
2023-01-28T14:04:53.715Z,5.15
2023-01-28T14:07:48.436Z,4.10
2023-01-28T14:10:30.245Z,6.85
2023-01-28T14:13:29.668Z,4.73
2023-01-28T14:15:59.160Z,3.40
2023-01-28T14:18:35.250Z,7.35
2023-01-28T14:21:08.600Z,6.57
2023-01-28T14:23:37.891Z,6.22
2023-01-28T14:26:26.298Z,4.87
2023-01-28T14:29:27.065Z,5.78
2023-01-28T14:31:54.875Z,6.22
2023-01-28T14:34:29.678Z,4.93
2023-01-28T14:37:04.445Z,7.00
2023-01-28T14:39:39.287Z,7.73
2023-01-28T14:42:05.760Z,7.93
2023-01-28T14:44:35.499Z,6.70
2023-01-28T14:47:13.894Z,4.57
2023-01-28T14:50:02.794Z,4.18
2023-01-28T14:52:49.505Z,5.60
2023-01-28T14:55:49.235Z,5.45
2023-01-28T14:58:21.726Z,6.45
2023-01-28T15:00:56.727Z,10.82
2023-01-28T15:03:25.357Z,7.72
2023-01-28T15:06:05.627Z,5.80
2023-01-28T15:08:32.036Z,6.60
2023-01-28T15:11:01.475Z,7.72
2023-01-28T15:13:32.425Z,6.63
2023-01-28T15:15:58.880Z,7.20
2023-01-28T15:18:32.058Z,5.87
2023-01-28T15:20:59.868Z,7.13
2023-01-28T15:23:31.565Z,7.28
2023-01-28T15:25:57.963Z,8.32
2023-01-28T15:28:31.327Z,6.65
2023-01-28T15:30:58.642Z,8.50
2023-01-28T15:33:25.960Z,9.52
2023-01-28T15:35:54.787Z,10.85
2023-01-28T15:38:22.234Z,8.70
2023-01-28T15:40:56.964Z,10.57
2023-01-28T15:43:36.668Z,17.30
2023-01-28T15:46:09.376Z,10.90
2023-01-28T15:48:36.509Z,12.32
2023-01-28T15:51:08.844Z,12.13
2023-01-28T15:53:42.838Z,11.65
2023-01-28T15:56:11.885Z,10.57
2023-01-28T15:58:38.940Z,8.52
2023-01-28T16:01:08.402Z,10.10
2023-01-28T16:03:38.856Z,11.90
2023-01-28T16:06:14.337Z,11.68
2023-01-28T16:09:02.711Z,7.03
2023-01-28T16:11:39.037Z,8.07
2023-01-28T16:14:05.430Z,12.05
2023-01-28T16:16:34.669Z,11.50
2023-01-28T16:19:08.447Z,9.13
2023-01-28T16:21:38.316Z,9.83
2023-01-28T16:24:07.116Z,10.65
2023-01-28T16:26:35.712Z,12.25
2023-01-28T16:29:14.743Z,11.90
2023-01-28T16:31:41.455Z,9.98
2023-01-28T16:34:10.534Z,8.10
2023-01-28T16:36:37.469Z,11.05
2023-01-28T16:39:03.966Z,12.60
2023-01-28T16:41:34.658Z,15.43
2023-01-28T16:44:00.970Z,11.65
2023-01-28T16:46:27.631Z,11.47
2023-01-28T16:48:54.076Z,11.65
2023-01-28T16:51:20.570Z,9.88
2023-01-28T16:53:48.571Z,11.45
2023-01-28T16:56:35.982Z,10.05
2023-01-28T16:59:10.528Z,12.83
2023-01-28T17:01:36.937Z,8.90
2023-01-28T17:04:03.489Z,11.57
2023-01-28T17:06:29.885Z,8.93
2023-01-28T17:08:56.249Z,10.18
2023-01-28T17:11:22.652Z,10.43
2023-01-28T17:13:49.012Z,10.32
2023-01-28T17:16:15.485Z,11.38
2023-01-28T17:18:41.955Z,11.35
2023-01-28T17:21:08.249Z,10.82
2023-01-28T17:23:34.616Z,9.53
2023-01-28T17:26:05.650Z,8.30
2023-01-28T17:28:32.053Z,7.43
2023-01-28T17:30:58.502Z,9.15
2023-01-28T17:33:24.991Z,8.45
2023-01-28T17:35:51.425Z,11.70
2023-01-28T17:38:17.827Z,9.60
2023-01-28T17:40:44.309Z,10.48
2023-01-28T17:43:10.734Z,10.38
2023-01-28T17:45:37.311Z,8.90
2023-01-28T17:48:03.998Z,11.23
2023-01-28T17:50:30.390Z,9.52
2023-01-28T17:52:57.506Z,10.85
2023-01-28T17:55:25.213Z,14.70
2023-01-28T17:57:51.715Z,12.02
2023-01-28T18:00:18.928Z,9.87
2023-01-28T18:02:45.298Z,14.18
2023-01-28T18:05:12.421Z,15.75
2023-01-28T18:07:38.955Z,12.65
2023-01-28T18:10:06.235Z,14.05
2023-01-28T18:12:32.733Z,12.30
2023-01-28T18:14:59.003Z,9.80
2023-01-28T18:17:25.424Z,10.00
2023-01-28T18:19:51.745Z,9.80
2023-01-28T18:22:18.175Z,11.98
2023-01-28T18:24:44.587Z,13.80
2023-01-28T18:27:10.994Z,8.93
2023-01-28T18:29:37.406Z,12.52
2023-01-28T18:32:04.095Z,12.20
2023-01-28T18:34:30.584Z,12.48
2023-01-28T18:36:57.663Z,13.47
2023-01-28T18:39:26.604Z,14.15
2023-01-28T18:41:53.836Z,13.18
2023-01-28T18:44:20.571Z,12.15
2023-01-28T18:46:46.900Z,15.65
2023-01-28T18:49:13.428Z,14.03
2023-01-28T18:51:39.841Z,11.05
2023-01-28T18:54:10.299Z,13.55
2023-01-28T18:56:38.205Z,10.18
2023-01-28T18:59:06.580Z,9.30
2023-01-28T19:01:34.673Z,9.10
2023-01-28T19:04:02.069Z,11.25
2023-01-28T19:06:30.399Z,11.70
2023-01-28T19:08:59.522Z,8.50
2023-01-28T19:11:27.759Z,10.88
2023-01-28T19:13:54.448Z,11.33
2023-01-28T19:16:21.763Z,12.82
2023-01-28T19:18:56.364Z,12.50
2023-01-28T19:21:23.252Z,13.23
2023-01-28T19:23:58.003Z,11.32
2023-01-28T19:26:25.463Z,13.00
2023-01-28T19:28:52.083Z,9.15
2023-01-28T19:31:20.192Z,13.52
2023-01-28T19:33:48.111Z,13.20
2023-01-28T19:36:15.507Z,11.32
2023-01-28T19:38:42.142Z,11.73
2023-01-28T19:41:08.760Z,14.98
2023-01-28T19:43:35.643Z,17.85
2023-01-28T19:46:04.765Z,17.55
2023-01-28T19:48:32.413Z,18.35
2023-01-28T19:51:04.218Z,24.77
2023-01-28T19:53:30.612Z,21.05
2023-01-28T19:55:56.978Z,18.88
2023-01-28T19:58:23.377Z,15.27
2023-01-28T20:00:49.848Z,12.85
2023-01-28T20:03:16.220Z,14.30
2023-01-28T20:05:42.668Z,16.40
2023-01-28T20:08:10.073Z,14.50
2023-01-28T20:10:36.447Z,16.58
2023-01-28T20:13:05.220Z,17.50
2023-01-28T20:15:31.569Z,17.80
2023-01-28T20:17:58.038Z,14.02
2023-01-28T20:20:24.421Z,14.65
2023-01-28T20:22:50.747Z,13.43
2023-01-28T20:25:17.526Z,17.85
2023-01-28T20:27:44.165Z,20.57
2023-01-28T20:30:11.114Z,15.55
2023-01-28T20:32:37.513Z,19.27
2023-01-28T20:35:04.086Z,16.85
2023-01-28T20:37:30.549Z,15.90
2023-01-28T20:39:56.871Z,17.13
2023-01-28T20:42:23.251Z,16.30
2023-01-28T20:44:49.718Z,16.10
2023-01-28T20:47:16.100Z,13.95
2023-01-28T20:49:42.506Z,15.23
2023-01-28T20:52:08.902Z,16.70
2023-01-28T20:54:35.268Z,13.88
2023-01-28T20:57:01.592Z,16.92
2023-01-28T20:59:28.001Z,15.52
2023-01-28T21:01:54.783Z,19.45
2023-01-28T21:04:21.229Z,14.73
2023-01-28T21:06:47.705Z,14.70
2023-01-28T21:09:14.119Z,13.68
2023-01-28T21:11:40.511Z,15.48
2023-01-28T21:14:06.836Z,15.55
2023-01-28T21:16:33.202Z,15.93
2023-01-28T21:18:59.618Z,19.95
2023-01-28T21:21:28.571Z,15.35
2023-01-28T21:23:55.440Z,16.92
2023-01-28T21:26:21.845Z,16.92
2023-01-28T21:28:48.350Z,15.90
2023-01-28T21:31:20.701Z,17.88
2023-01-28T21:33:54.912Z,17.65
2023-01-28T21:36:22.172Z,16.63
2023-01-28T21:38:59.091Z,19.17
2023-01-28T21:41:26.520Z,17.17
2023-01-28T21:43:54.273Z,17.60
2023-01-28T21:46:26.173Z,17.73
2023-01-28T21:49:00.619Z,17.88
2023-01-28T21:51:27.829Z,21.45
2023-01-28T21:53:54.225Z,17.80
2023-01-28T21:56:20.854Z,20.33
2023-01-28T21:58:47.336Z,19.92
2023-01-28T22:01:13.860Z,18.65
2023-01-28T22:03:40.415Z,18.98
2023-01-28T22:06:07.048Z,22.23
2023-01-28T22:08:33.683Z,19.50
2023-01-28T22:11:04.778Z,22.98
2023-01-28T22:13:32.039Z,19.13
2023-01-28T22:15:59.050Z,20.52
2023-01-28T22:18:25.572Z,20.10
2023-01-28T22:20:59.792Z,20.15
2023-01-28T22:23:27.029Z,22.67
2023-01-28T22:25:54.930Z,19.13
2023-01-28T22:28:21.508Z,22.55
2023-01-28T22:30:48.119Z,19.27
2023-01-28T22:33:14.617Z,22.52
2023-01-28T22:35:40.969Z,19.30
2023-01-28T22:38:07.374Z,21.90
2023-01-28T22:40:34.847Z,21.13
2023-01-28T22:43:01.190Z,21.23
2023-01-28T22:45:27.732Z,21.10
2023-01-28T22:47:54.205Z,19.08
2023-01-28T22:50:20.633Z,21.13
2023-01-28T22:52:48.168Z,18.65
2023-01-28T22:55:14.604Z,19.30
2023-01-28T22:57:41.010Z,24.35
2023-01-28T23:00:13.870Z,21.60
2023-01-28T23:02:40.523Z,24.05
2023-01-28T23:05:07.427Z,20.73
2023-01-28T23:07:33.786Z,26.63
2023-01-28T23:10:00.256Z,18.85
2023-01-28T23:12:26.715Z,19.83
2023-01-28T23:14:53.132Z,26.00
2023-01-28T23:17:19.593Z,17.45
2023-01-28T23:19:46.281Z,18.23
2023-01-28T23:22:17.095Z,21.95
2023-01-28T23:24:43.426Z,21.67
2023-01-28T23:27:09.836Z,15.57
2023-01-28T23:29:36.272Z,18.85
2023-01-28T23:32:05.585Z,15.27
2023-01-28T23:34:34.659Z,14.63
2023-01-28T23:37:02.051Z,15.23
2023-01-28T23:39:28.464Z,17.48
2023-01-28T23:41:55.436Z,15.27
2023-01-28T23:44:26.152Z,14.47
2023-01-28T23:46:53.225Z,15.07
2023-01-28T23:49:20.427Z,18.63
2023-01-28T23:51:46.930Z,15.77
2023-01-28T23:54:13.269Z,17.60
2023-01-28T23:56:39.701Z,20.30
2023-01-28T23:59:06.089Z,14.13
